createdAt,value
2022-08-16T00:02:12.991Z,26.61
2022-08-16T00:04:36.462Z,26.62
2022-08-16T00:07:06.238Z,26.62
2022-08-16T00:09:35.965Z,26.62
2022-08-16T00:12:06.029Z,26.62
2022-08-16T00:14:35.617Z,26.62
2022-08-16T00:17:18.896Z,26.63
2022-08-16T00:19:41.129Z,26.63
2022-08-16T00:22:12.793Z,26.64
2022-08-16T00:24:40.050Z,26.63
2022-08-16T00:27:12.609Z,26.63
2022-08-16T00:29:42.497Z,26.63
2022-08-16T00:32:12.721Z,26.60
2022-08-16T00:34:53.880Z,26.63
2022-08-16T00:37:17.061Z,26.63
2022-08-16T00:39:57.194Z,26.62
2022-08-16T00:42:30.734Z,26.62
2022-08-16T00:44:56.827Z,26.62
2022-08-16T00:47:26.851Z,26.61
2022-08-16T00:49:58.193Z,26.61
2022-08-16T00:52:30.067Z,26.61
2022-08-16T00:54:58.850Z,26.60
2022-08-16T00:57:59.051Z,26.60
2022-08-16T01:00:02.283Z,26.59
2022-08-16T01:02:33.082Z,26.57
2022-08-16T01:05:10.371Z,26.57
2022-08-16T01:07:51.670Z,26.57
2022-08-16T01:10:16.145Z,26.57
2022-08-16T01:12:38.974Z,26.55
2022-08-16T01:15:09.626Z,26.51
2022-08-16T01:17:43.362Z,26.51
2022-08-16T01:20:24.677Z,26.51
2022-08-16T01:22:53.819Z,26.50
2022-08-16T01:25:33.672Z,26.50
2022-08-16T01:28:02.283Z,26.43
2022-08-16T01:30:34.236Z,26.41
2022-08-16T01:33:14.331Z,26.42
2022-08-16T01:35:42.321Z,26.43
2022-08-16T01:38:21.441Z,26.43
2022-08-16T01:40:58.231Z,26.38
2022-08-16T01:43:31.141Z,26.35
2022-08-16T01:46:30.053Z,26.36
2022-08-16T01:48:36.778Z,26.36
2022-08-16T01:51:16.665Z,26.36
2022-08-16T01:53:41.241Z,26.34
2022-08-16T01:56:23.684Z,26.29
2022-08-16T01:58:48.030Z,26.27
2022-08-16T02:01:16.247Z,26.29
2022-08-16T02:03:50.599Z,26.30
2022-08-16T02:06:34.154Z,26.29
2022-08-16T02:08:51.183Z,26.26
2022-08-16T02:11:20.847Z,26.25
2022-08-16T02:13:54.891Z,26.25
2022-08-16T02:16:23.480Z,26.24
2022-08-16T02:18:53.812Z,26.23
2022-08-16T02:21:31.344Z,26.22
2022-08-16T02:23:56.130Z,26.17
2022-08-16T02:26:26.986Z,26.17
2022-08-16T02:28:59.999Z,26.17
2022-08-16T02:32:04.109Z,26.16
2022-08-16T02:34:06.320Z,26.16
2022-08-16T02:36:42.412Z,26.12
2022-08-16T02:39:07.642Z,26.11
2022-08-16T02:41:39.597Z,26.09
2022-08-16T02:44:13.884Z,26.09
2022-08-16T02:46:50.480Z,26.08
2022-08-16T02:49:16.763Z,26.06
2022-08-16T02:51:46.587Z,25.97
2022-08-16T02:54:17.643Z,26.01
2022-08-16T02:56:48.147Z,26.02
2022-08-16T02:59:17.733Z,26.02
2022-08-16T03:01:50.149Z,26.03
2022-08-16T03:04:39.762Z,25.99
2022-08-16T03:06:57.346Z,25.99
2022-08-16T03:09:28.861Z,26.00
2022-08-16T03:12:04.079Z,26.01
2022-08-16T03:14:34.109Z,26.02
2022-08-16T03:17:04.203Z,26.03
2022-08-16T03:19:48.410Z,26.04
2022-08-16T03:22:06.119Z,26.05
2022-08-16T03:24:36.246Z,26.05
2022-08-16T03:27:06.125Z,26.07
2022-08-16T03:29:36.377Z,26.08
2022-08-16T03:32:06.845Z,26.10
2022-08-16T03:34:36.487Z,26.12
2022-08-16T03:37:06.909Z,26.12
2022-08-16T03:39:42.569Z,26.11
2022-08-16T03:42:09.707Z,26.13
2022-08-16T03:44:43.984Z,26.16
2022-08-16T03:47:10.718Z,26.16
2022-08-16T03:49:40.587Z,26.17
2022-08-16T03:52:14.143Z,26.18
2022-08-16T03:54:57.418Z,26.17
2022-08-16T03:57:18.021Z,26.18
2022-08-16T03:59:51.059Z,26.19
2022-08-16T04:02:31.480Z,26.21
2022-08-16T04:04:54.785Z,26.22
2022-08-16T04:07:25.822Z,26.19
2022-08-16T04:09:55.466Z,26.21
2022-08-16T04:12:52.980Z,26.23
2022-08-16T04:14:59.685Z,26.24
2022-08-16T04:17:30.071Z,26.25
2022-08-16T04:20:00.053Z,26.12
2022-08-16T04:22:33.231Z,26.12
2022-08-16T04:25:07.331Z,26.25
2022-08-16T04:27:40.011Z,26.27
2022-08-16T04:30:31.835Z,26.28
2022-08-16T04:32:49.119Z,26.29
2022-08-16T04:35:20.631Z,26.19
2022-08-16T04:37:53.729Z,26.24
2022-08-16T04:40:25.138Z,26.26
2022-08-16T04:42:55.176Z,26.28
2022-08-16T04:45:35.371Z,26.29
2022-08-16T04:47:58.103Z,26.29
2022-08-16T04:50:31.195Z,26.24
2022-08-16T04:53:01.018Z,26.27
2022-08-16T04:55:31.995Z,26.29
2022-08-16T04:58:02.280Z,26.31
2022-08-16T05:00:35.069Z,26.33
2022-08-16T05:03:08.338Z,26.27
2022-08-16T05:05:44.871Z,26.28
2022-08-16T05:08:29.232Z,26.30
2022-08-16T05:10:44.361Z,26.29
2022-08-16T05:13:14.481Z,26.33
2022-08-16T05:15:45.465Z,26.31
2022-08-16T05:18:18.271Z,26.27
2022-08-16T05:21:06.520Z,26.28
2022-08-16T05:23:19.509Z,26.31
2022-08-16T05:25:50.942Z,26.34
2022-08-16T05:28:22.303Z,26.35
2022-08-16T05:30:53.718Z,26.29
2022-08-16T05:33:23.351Z,26.29
2022-08-16T05:35:55.230Z,26.33
2022-08-16T05:38:30.977Z,26.33
2022-08-16T05:41:02.237Z,26.35
2022-08-16T05:43:43.353Z,26.36
2022-08-16T05:46:06.199Z,26.26
2022-08-16T05:48:37.510Z,26.29
2022-08-16T05:51:07.691Z,26.31
2022-08-16T05:53:38.882Z,26.33
2022-08-16T05:56:19.464Z,26.35
2022-08-16T05:58:47.171Z,26.29
2022-08-16T06:01:16.820Z,26.28
2022-08-16T06:03:46.762Z,26.31
2022-08-16T06:06:28.060Z,26.33
2022-08-16T06:08:49.036Z,26.35
2022-08-16T06:11:20.415Z,26.34
2022-08-16T06:13:51.871Z,26.28
2022-08-16T06:16:23.182Z,26.30
2022-08-16T06:18:54.853Z,26.33
2022-08-16T06:21:28.041Z,26.35
2022-08-16T06:24:01.174Z,26.36
2022-08-16T06:26:34.856Z,26.32
2022-08-16T06:29:01.993Z,26.28
2022-08-16T06:31:31.667Z,26.31
2022-08-16T06:34:03.093Z,26.33
2022-08-16T06:36:34.243Z,26.34
2022-08-16T06:39:06.158Z,26.36
2022-08-16T06:41:39.654Z,26.26
2022-08-16T06:44:07.037Z,26.28
2022-08-16T06:46:38.728Z,26.30
2022-08-16T06:49:10.823Z,26.33
2022-08-16T06:54:02.431Z,26.34
2022-08-16T06:56:32.164Z,26.23
2022-08-16T06:59:02.495Z,26.27
2022-08-16T07:01:45.200Z,26.30
2022-08-16T07:04:11.986Z,26.31
2022-08-16T07:06:38.374Z,26.34
2022-08-16T07:09:09.529Z,26.25
2022-08-16T07:11:47.420Z,26.26
2022-08-16T07:14:25.259Z,26.30
2022-08-16T07:16:42.764Z,26.31
2022-08-16T07:19:13.894Z,26.33
2022-08-16T07:21:59.987Z,26.29
2022-08-16T07:24:29.911Z,26.21
2022-08-16T07:26:49.787Z,26.26
2022-08-16T07:29:19.545Z,26.29
2022-08-16T07:31:51.397Z,26.30
2022-08-16T07:34:35.156Z,26.31
2022-08-16T07:36:57.800Z,26.21
2022-08-16T07:39:30.437Z,26.21
2022-08-16T07:41:57.806Z,26.24
2022-08-16T07:44:27.356Z,26.27
2022-08-16T07:46:58.634Z,26.28
2022-08-16T07:49:32.273Z,26.27
2022-08-16T07:51:59.733Z,26.17
2022-08-16T07:54:39.175Z,26.22
2022-08-16T07:57:05.533Z,26.25
2022-08-16T07:59:42.758Z,26.26
2022-08-16T08:02:12.039Z,26.29
2022-08-16T08:04:39.662Z,26.20
2022-08-16T08:07:10.608Z,26.17
2022-08-16T08:09:43.419Z,26.22
2022-08-16T08:12:32.429Z,26.24
2022-08-16T08:14:43.811Z,26.26
2022-08-16T08:17:16.012Z,26.26
2022-08-16T08:19:53.278Z,26.14
2022-08-16T08:22:22.031Z,26.17
2022-08-16T08:24:53.273Z,26.20
2022-08-16T08:27:23.642Z,26.23
2022-08-16T08:30:49.262Z,26.25
2022-08-16T08:32:59.944Z,26.17
2022-08-16T08:35:03.043Z,26.14
2022-08-16T08:37:54.265Z,26.18
2022-08-16T08:40:03.452Z,26.21
2022-08-16T08:42:34.138Z,26.23
2022-08-16T08:45:04.580Z,26.23
2022-08-16T08:47:34.887Z,26.11
2022-08-16T08:50:05.421Z,26.14
2022-08-16T08:52:37.902Z,26.18
2022-08-16T08:55:11.000Z,26.19
2022-08-16T08:57:44.111Z,26.22
2022-08-16T09:00:14.663Z,26.23
2022-08-16T09:02:52.125Z,26.13
2022-08-16T09:05:17.122Z,26.08
2022-08-16T09:08:00.271Z,26.15
2022-08-16T09:10:20.652Z,26.19
2022-08-16T09:12:50.740Z,26.20
2022-08-16T09:15:22.116Z,26.22
2022-08-16T09:17:55.079Z,26.11
2022-08-16T09:20:25.976Z,26.09
2022-08-16T09:22:55.789Z,26.14
2022-08-16T09:25:33.764Z,26.17
2022-08-16T09:28:02.476Z,26.19
2022-08-16T09:30:34.452Z,26.21
2022-08-16T09:33:01.273Z,26.22
2022-08-16T09:35:31.189Z,26.10
2022-08-16T09:38:02.270Z,26.06
2022-08-16T09:40:42.791Z,26.12
2022-08-16T09:43:05.758Z,26.15
2022-08-16T09:45:37.368Z,26.17
2022-08-16T09:48:09.302Z,26.19
2022-08-16T09:50:39.868Z,26.19
2022-08-16T09:53:18.422Z,26.04
2022-08-16T09:55:50.130Z,26.05
2022-08-16T09:58:41.744Z,26.10
2022-08-16T10:00:55.756Z,26.13
2022-08-16T10:03:26.533Z,26.16
2022-08-16T10:05:58.085Z,26.06
2022-08-16T10:08:27.975Z,26.19
2022-08-16T10:11:23.933Z,26.17
2022-08-16T10:13:47.361Z,26.04
2022-08-16T10:16:18.254Z,26.09
2022-08-16T10:19:02.055Z,26.12
2022-08-16T10:21:20.683Z,26.14
2022-08-16T10:23:53.565Z,26.16
2022-08-16T10:27:20.323Z,26.17
2022-08-16T10:28:56.590Z,26.18
2022-08-16T10:31:46.057Z,26.19
2022-08-16T10:33:58.485Z,26.18
2022-08-16T10:36:37.872Z,26.19
2022-08-16T10:39:04.443Z,26.19
2022-08-16T10:41:34.690Z,26.17
2022-08-16T10:44:05.187Z,26.18
2022-08-16T10:46:41.457Z,26.17
2022-08-16T10:49:07.716Z,26.16
2022-08-16T10:52:01.632Z,26.16
2022-08-16T10:54:29.277Z,26.15
2022-08-16T10:56:55.482Z,26.15
2022-08-16T10:59:44.049Z,26.13
2022-08-16T11:05:05.644Z,26.09
2022-08-16T11:07:08.662Z,26.07
2022-08-16T11:09:25.648Z,26.05
2022-08-16T11:12:13.748Z,26.05
2022-08-16T11:14:27.587Z,26.03
2022-08-16T11:17:10.509Z,26.03
2022-08-16T11:19:30.913Z,26.02
2022-08-16T11:22:39.691Z,26.02
2022-08-16T11:24:43.293Z,26.00
2022-08-16T11:27:32.790Z,26.00
2022-08-16T11:29:41.475Z,25.98
2022-08-16T11:32:11.149Z,25.98
2022-08-16T11:35:05.772Z,25.98
2022-08-16T11:37:27.704Z,25.97
2022-08-16T11:39:46.705Z,25.96
2022-08-16T11:42:30.456Z,25.97
2022-08-16T11:44:52.510Z,25.96
2022-08-16T11:47:20.683Z,25.95
2022-08-16T11:49:50.393Z,25.94
2022-08-16T11:52:21.688Z,25.94
2022-08-16T11:54:53.954Z,25.94
2022-08-16T11:57:22.926Z,25.94
2022-08-16T11:59:55.015Z,25.94
2022-08-16T12:02:31.813Z,25.94
2022-08-16T12:04:57.486Z,25.94
2022-08-16T12:07:27.406Z,25.93
2022-08-16T12:09:57.910Z,25.93
2022-08-16T12:12:28.534Z,25.93
2022-08-16T12:14:59.776Z,25.92
2022-08-16T12:17:33.760Z,25.92
2022-08-16T12:20:04.947Z,25.92
2022-08-16T12:22:36.668Z,25.92
2022-08-16T12:25:12.600Z,25.93
2022-08-16T12:27:45.114Z,25.93
2022-08-16T12:30:26.376Z,25.90
2022-08-16T12:32:52.959Z,25.93
2022-08-16T12:35:22.548Z,25.92
2022-08-16T12:37:56.694Z,25.91
2022-08-16T12:40:25.551Z,25.92
2022-08-16T12:42:59.123Z,25.91
2022-08-16T12:45:30.777Z,25.91
2022-08-16T12:48:35.354Z,25.90
2022-08-16T12:50:50.757Z,25.92
2022-08-16T12:53:21.260Z,25.91
2022-08-16T12:55:51.533Z,25.92
2022-08-16T12:58:48.396Z,25.91
2022-08-16T13:00:54.011Z,25.91
2022-08-16T13:03:24.362Z,25.88
2022-08-16T13:05:56.292Z,25.65
2022-08-16T13:08:30.579Z,25.62
2022-08-16T13:10:57.410Z,25.68
2022-08-16T13:13:27.431Z,25.73
2022-08-16T13:16:03.756Z,25.75
2022-08-16T13:18:34.195Z,25.57
2022-08-16T13:21:04.034Z,25.57
2022-08-16T13:23:33.751Z,25.62
2022-08-16T13:26:06.782Z,25.66
2022-08-16T13:28:37.880Z,25.69
2022-08-16T13:31:14.270Z,25.67
2022-08-16T15:24:58.888Z,25.70
2022-08-16T15:27:35.670Z,25.53
2022-08-16T15:30:02.243Z,25.36
2022-08-16T15:32:33.673Z,25.23
2022-08-16T15:35:10.335Z,25.14
2022-08-16T15:37:44.056Z,25.11
2022-08-16T15:40:32.565Z,24.97
2022-08-16T15:43:01.237Z,24.90
2022-08-16T15:45:55.588Z,24.79
2022-08-16T15:48:21.291Z,24.71
2022-08-16T15:50:52.475Z,24.73
2022-08-16T15:53:24.207Z,24.63
2022-08-16T15:55:53.731Z,24.52
2022-08-16T15:58:35.727Z,24.47
2022-08-16T16:00:56.489Z,24.46
2022-08-16T16:03:26.697Z,24.44
2022-08-16T16:06:00.483Z,24.44
2022-08-16T16:08:30.775Z,24.46
2022-08-16T16:11:03.259Z,24.37
2022-08-16T16:13:33.309Z,24.27
2022-08-16T16:16:06.728Z,24.21
2022-08-16T16:18:38.129Z,24.18
2022-08-16T16:21:10.418Z,23.86
2022-08-16T16:23:53.881Z,23.86
2022-08-16T16:26:16.311Z,23.91
2022-08-16T16:29:08.784Z,23.87
2022-08-16T16:31:20.437Z,23.87
2022-08-16T16:33:53.988Z,23.90
2022-08-16T16:36:29.807Z,23.92
2022-08-16T16:38:59.621Z,23.86
2022-08-16T16:41:30.367Z,23.82
2022-08-16T16:44:02.158Z,23.78
2022-08-16T16:46:42.737Z,23.74
2022-08-16T16:49:09.238Z,23.72
2022-08-16T16:51:41.232Z,23.71
2022-08-16T16:54:12.903Z,23.64
2022-08-16T16:56:58.992Z,23.73
2022-08-16T16:59:28.239Z,23.88
2022-08-16T17:02:01.405Z,23.96
2022-08-16T17:04:31.798Z,23.98
2022-08-16T17:07:02.377Z,23.97
2022-08-16T17:09:33.081Z,24.03
2022-08-16T17:12:07.650Z,24.13
2022-08-16T17:14:38.696Z,24.21
2022-08-16T17:17:13.285Z,24.20
2022-08-16T17:19:43.195Z,24.16
2022-08-16T17:22:16.200Z,24.15
2022-08-16T17:24:53.484Z,24.23
2022-08-16T17:27:32.422Z,24.31
2022-08-16T17:29:57.539Z,24.32
2022-08-16T17:32:34.147Z,24.26
2022-08-16T17:35:00.556Z,24.31
2022-08-16T17:37:34.029Z,24.39
2022-08-16T17:40:23.217Z,24.45
2022-08-16T17:42:33.907Z,24.49
2022-08-16T17:45:03.513Z,24.50
2022-08-16T17:47:33.214Z,24.47
2022-08-16T17:50:03.131Z,24.38
2022-08-16T17:52:35.707Z,24.39
2022-08-16T17:55:12.212Z,24.45
2022-08-16T17:57:42.809Z,24.49
2022-08-16T18:00:20.107Z,24.49
2022-08-16T18:02:47.673Z,24.45
2022-08-16T18:05:17.618Z,24.52
2022-08-16T18:07:47.716Z,24.59
2022-08-16T18:10:31.288Z,24.62
2022-08-16T18:12:55.497Z,24.65
2022-08-16T18:15:24.125Z,24.62
2022-08-16T18:17:54.154Z,24.58
2022-08-16T18:20:28.492Z,24.56
2022-08-16T18:23:07.577Z,24.63
2022-08-16T18:25:37.618Z,24.67
2022-08-16T18:28:08.138Z,24.66
2022-08-16T18:30:38.066Z,24.63
2022-08-16T18:33:10.682Z,24.66
2022-08-16T18:35:43.529Z,24.70
2022-08-16T18:38:13.160Z,24.74
2022-08-16T18:40:42.784Z,24.75
2022-08-16T18:43:14.830Z,24.72
2022-08-16T18:45:46.743Z,24.66
2022-08-16T18:48:17.875Z,24.63
2022-08-16T18:51:04.066Z,24.57
2022-08-16T18:53:27.315Z,24.52
2022-08-16T18:55:59.521Z,24.60
2022-08-16T18:58:29.708Z,24.65
2022-08-16T19:00:59.571Z,24.65
2022-08-16T19:03:31.784Z,24.64
2022-08-16T19:06:06.715Z,24.54
2022-08-16T19:08:37.979Z,24.50
2022-08-16T19:11:09.379Z,24.54
2022-08-16T19:13:40.566Z,24.62
2022-08-16T19:16:10.345Z,24.63
2022-08-16T19:18:40.411Z,24.60
2022-08-16T19:21:10.537Z,24.51
2022-08-16T19:23:42.011Z,24.51
2022-08-16T19:26:25.651Z,24.51
2022-08-16T19:28:59.642Z,24.59
2022-08-16T19:31:29.542Z,24.62
2022-08-16T19:33:59.288Z,24.58
2022-08-16T19:36:36.014Z,24.54
2022-08-16T19:39:06.361Z,24.48
2022-08-16T19:41:37.422Z,24.47
2022-08-16T19:44:11.481Z,24.58
2022-08-16T19:46:41.852Z,24.62
2022-08-16T19:49:14.938Z,24.58
2022-08-16T19:51:45.442Z,24.56
2022-08-16T19:54:16.304Z,24.55
2022-08-16T19:56:47.065Z,24.59
2022-08-16T19:59:20.508Z,24.65
2022-08-16T20:01:50.372Z,24.66
2022-08-16T20:04:20.186Z,24.64
2022-08-16T20:06:49.817Z,24.62
2022-08-16T20:09:19.516Z,24.61
2022-08-16T20:11:49.963Z,24.63
2022-08-16T20:14:25.603Z,24.68
2022-08-16T20:16:53.535Z,24.69
2022-08-16T20:19:23.228Z,24.71
2022-08-16T20:21:53.218Z,24.66
2022-08-16T20:24:34.213Z,24.64
2022-08-16T20:26:54.330Z,24.68
2022-08-16T20:29:23.963Z,24.72
2022-08-16T20:31:54.734Z,24.75
2022-08-16T20:34:24.843Z,24.75
2022-08-16T20:36:55.982Z,24.74
2022-08-16T20:39:25.783Z,24.80
2022-08-16T20:41:55.423Z,24.83
2022-08-16T20:44:25.136Z,24.87
2022-08-16T20:46:56.859Z,24.90
2022-08-16T20:49:26.586Z,24.93
2022-08-16T20:51:59.766Z,24.97
2022-08-16T20:54:30.578Z,24.98
2022-08-16T20:57:00.139Z,25.02
2022-08-16T20:59:30.285Z,25.04
2022-08-16T21:01:59.991Z,25.07
2022-08-16T21:04:30.213Z,25.09
2022-08-16T21:07:00.396Z,25.13
2022-08-16T21:09:32.413Z,25.15
2022-08-16T21:12:03.605Z,25.18
2022-08-16T21:14:34.815Z,25.20
2022-08-16T21:17:05.149Z,25.23
2022-08-16T21:19:34.689Z,25.24
2022-08-16T21:22:22.790Z,25.28
2022-08-16T21:24:54.088Z,25.30
2022-08-16T21:27:26.922Z,25.32
2022-08-16T21:29:57.770Z,25.34
2022-08-16T21:32:35.799Z,25.36
2022-08-16T21:35:03.335Z,25.38
2022-08-16T21:37:33.055Z,25.43
2022-08-16T21:40:02.653Z,25.31
2022-08-16T21:42:36.410Z,25.45
2022-08-16T21:45:04.358Z,25.49
2022-08-16T21:47:33.869Z,25.52
2022-08-16T21:50:03.563Z,25.54
2022-08-16T21:52:33.070Z,25.57
2022-08-16T21:55:02.585Z,25.59
2022-08-16T21:57:35.455Z,25.60
2022-08-16T22:00:03.652Z,25.62
2022-08-16T22:02:38.546Z,25.64
2022-08-16T22:05:06.939Z,25.67
2022-08-16T22:07:36.529Z,25.70
2022-08-16T22:11:05.489Z,25.70
2022-08-16T22:12:38.162Z,25.73
2022-08-16T22:15:09.244Z,25.75
2022-08-16T22:17:39.126Z,25.76
2022-08-16T22:20:09.952Z,25.78
2022-08-16T22:22:39.579Z,25.80
2022-08-16T22:25:10.122Z,25.81
2022-08-16T22:30:35.126Z,25.85
2022-08-16T22:33:03.185Z,25.87
2022-08-16T22:35:32.925Z,25.88
2022-08-16T22:38:50.646Z,25.89
2022-08-16T22:40:33.794Z,25.92
2022-08-16T22:43:03.364Z,25.92
2022-08-16T22:45:33.121Z,25.94
2022-08-16T22:48:11.435Z,25.96
2022-08-16T22:50:41.922Z,25.98
2022-08-16T22:53:11.669Z,25.99
2022-08-16T22:55:42.471Z,26.00
2022-08-16T22:58:13.771Z,26.02
2022-08-16T23:00:45.001Z,26.04
2022-08-16T23:03:18.703Z,26.04
2022-08-16T23:05:51.324Z,26.06
2022-08-16T23:08:38.086Z,26.08
2022-08-16T23:10:53.902Z,26.09
2022-08-16T23:13:25.667Z,26.11
2022-08-16T23:16:01.832Z,26.13
2022-08-16T23:18:32.270Z,26.14
2022-08-16T23:21:03.399Z,26.17
2022-08-16T23:23:34.039Z,26.17
2022-08-16T23:26:46.564Z,26.02
2022-08-16T23:28:36.778Z,26.20
2022-08-16T23:31:07.753Z,26.21
2022-08-16T23:33:37.891Z,26.24
2022-08-16T23:36:08.321Z,26.24
2022-08-16T23:38:39.852Z,26.25
2022-08-16T23:41:13.254Z,26.26
2022-08-16T23:43:43.970Z,26.27
2022-08-16T23:46:17.149Z,26.29
2022-08-16T23:49:58.987Z,26.29
2022-08-16T23:51:38.397Z,26.30
2022-08-16T23:53:51.795Z,26.30
2022-08-16T23:56:22.244Z,26.31
2022-08-16T23:59:02.110Z,26.33
